sensor_id;sensor_type;location;lat;lon;timestamp;P1;durP1;ratioP1;P2;durP2;ratioP2
76447;SDS011;65284;51.040;13.722;2024-03-07T00:00:56;45.78;;;17.35;;
76447;SDS011;65284;51.040;13.722;2024-03-07T00:03:23;51.05;;;19.13;;
76447;SDS011;65284;51.040;13.722;2024-03-07T00:05:50;54.13;;;19.15;;
76447;SDS011;65284;51.040;13.722;2024-03-07T00:08:17;53.00;;;19.15;;
76447;SDS011;65284;51.040;13.722;2024-03-07T00:10:44;55.25;;;19.23;;
76447;SDS011;65284;51.040;13.722;2024-03-07T00:13:11;55.15;;;19.70;;
76447;SDS011;65284;51.040;13.722;2024-03-07T00:15:39;52.60;;;18.77;;
76447;SDS011;65284;51.040;13.722;2024-03-07T00:18:06;52.70;;;19.13;;
76447;SDS011;65284;51.040;13.722;2024-03-07T00:20:33;50.65;;;18.90;;
76447;SDS011;65284;51.040;13.722;2024-03-07T00:23:00;51.97;;;19.00;;
76447;SDS011;65284;51.040;13.722;2024-03-07T00:25:26;51.97;;;18.65;;
76447;SDS011;65284;51.040;13.722;2024-03-07T00:27:53;49.38;;;18.90;;
76447;SDS011;65284;51.040;13.722;2024-03-07T00:30:19;50.67;;;19.25;;
76447;SDS011;65284;51.040;13.722;2024-03-07T00:32:46;55.65;;;19.60;;
76447;SDS011;65284;51.040;13.722;2024-03-07T00:35:14;59.05;;;20.50;;
76447;SDS011;65284;51.040;13.722;2024-03-07T00:37:40;50.40;;;18.67;;
76447;SDS011;65284;51.040;13.722;2024-03-07T00:40:07;57.13;;;18.52;;
76447;SDS011;65284;51.040;13.722;2024-03-07T00:42:35;51.03;;;19.60;;
76447;SDS011;65284;51.040;13.722;2024-03-07T00:45:01;53.85;;;19.13;;
76447;SDS011;65284;51.040;13.722;2024-03-07T00:47:29;55.85;;;19.33;;
76447;SDS011;65284;51.040;13.722;2024-03-07T00:49:55;58.40;;;19.48;;
76447;SDS011;65284;51.040;13.722;2024-03-07T00:52:22;56.47;;;19.08;;
76447;SDS011;65284;51.040;13.722;2024-03-07T00:54:48;53.95;;;18.90;;
76447;SDS011;65284;51.040;13.722;2024-03-07T00:57:15;60.88;;;19.90;;
76447;SDS011;65284;51.040;13.722;2024-03-07T00:59:42;60.40;;;20.08;;
76447;SDS011;65284;51.040;13.722;2024-03-07T01:02:08;57.60;;;19.90;;
76447;SDS011;65284;51.040;13.722;2024-03-07T01:04:35;54.30;;;19.52;;
76447;SDS011;65284;51.040;13.722;2024-03-07T01:07:02;55.33;;;21.30;;
76447;SDS011;65284;51.040;13.722;2024-03-07T01:09:29;56.35;;;20.20;;
76447;SDS011;65284;51.040;13.722;2024-03-07T01:11:56;62.42;;;21.23;;
76447;SDS011;65284;51.040;13.722;2024-03-07T01:14:23;58.45;;;20.45;;
76447;SDS011;65284;51.040;13.722;2024-03-07T01:16:50;59.45;;;20.58;;
76447;SDS011;65284;51.040;13.722;2024-03-07T01:19:16;57.25;;;20.15;;
76447;SDS011;65284;51.040;13.722;2024-03-07T01:21:43;58.35;;;19.92;;
76447;SDS011;65284;51.040;13.722;2024-03-07T01:24:09;51.80;;;19.77;;
76447;SDS011;65284;51.040;13.722;2024-03-07T01:26:36;53.38;;;19.30;;
76447;SDS011;65284;51.040;13.722;2024-03-07T01:29:02;53.20;;;19.13;;
76447;SDS011;65284;51.040;13.722;2024-03-07T01:31:30;55.58;;;19.15;;
76447;SDS011;65284;51.040;13.722;2024-03-07T01:33:57;56.20;;;19.38;;
76447;SDS011;65284;51.040;13.722;2024-03-07T01:36:23;52.47;;;18.67;;
76447;SDS011;65284;51.040;13.722;2024-03-07T01:38:50;58.50;;;20.10;;
76447;SDS011;65284;51.040;13.722;2024-03-07T01:41:18;54.10;;;20.10;;
76447;SDS011;65284;51.040;13.722;2024-03-07T01:43:45;52.90;;;19.27;;
76447;SDS011;65284;51.040;13.722;2024-03-07T01:46:12;54.53;;;19.63;;
76447;SDS011;65284;51.040;13.722;2024-03-07T01:48:40;57.30;;;19.88;;
76447;SDS011;65284;51.040;13.722;2024-03-07T01:51:07;52.00;;;20.00;;
76447;SDS011;65284;51.040;13.722;2024-03-07T01:53:34;55.13;;;19.60;;
76447;SDS011;65284;51.040;13.722;2024-03-07T01:56:01;51.42;;;19.13;;
76447;SDS011;65284;51.040;13.722;2024-03-07T01:58:29;53.22;;;20.42;;
76447;SDS011;65284;51.040;13.722;2024-03-07T02:00:57;53.72;;;19.73;;
76447;SDS011;65284;51.040;13.722;2024-03-07T02:03:24;55.88;;;19.98;;
76447;SDS011;65284;51.040;13.722;2024-03-07T02:05:51;56.38;;;20.83;;
76447;SDS011;65284;51.040;13.722;2024-03-07T02:08:18;57.13;;;21.05;;
76447;SDS011;65284;51.040;13.722;2024-03-07T02:10:46;58.20;;;20.63;;
76447;SDS011;65284;51.040;13.722;2024-03-07T02:13:12;59.72;;;21.45;;
76447;SDS011;65284;51.040;13.722;2024-03-07T02:15:39;59.97;;;20.45;;
76447;SDS011;65284;51.040;13.722;2024-03-07T02:18:06;63.38;;;20.75;;
76447;SDS011;65284;51.040;13.722;2024-03-07T02:20:33;61.80;;;21.33;;
76447;SDS011;65284;51.040;13.722;2024-03-07T02:22:59;62.80;;;21.90;;
76447;SDS011;65284;51.040;13.722;2024-03-07T02:25:26;58.92;;;20.92;;
76447;SDS011;65284;51.040;13.722;2024-03-07T02:27:53;65.93;;;20.90;;
76447;SDS011;65284;51.040;13.722;2024-03-07T02:30:20;57.35;;;20.95;;
76447;SDS011;65284;51.040;13.722;2024-03-07T02:32:46;62.03;;;21.52;;
76447;SDS011;65284;51.040;13.722;2024-03-07T02:35:18;61.78;;;21.20;;
76447;SDS011;65284;51.040;13.722;2024-03-07T02:37:45;60.58;;;21.67;;
76447;SDS011;65284;51.040;13.722;2024-03-07T02:40:15;61.83;;;21.42;;
76447;SDS011;65284;51.040;13.722;2024-03-07T02:42:42;59.70;;;20.23;;
76447;SDS011;65284;51.040;13.722;2024-03-07T02:45:09;56.80;;;20.38;;
76447;SDS011;65284;51.040;13.722;2024-03-07T02:47:37;56.03;;;20.40;;
76447;SDS011;65284;51.040;13.722;2024-03-07T02:50:05;56.38;;;19.98;;
76447;SDS011;65284;51.040;13.722;2024-03-07T02:52:32;54.25;;;20.90;;
76447;SDS011;65284;51.040;13.722;2024-03-07T02:54:59;57.88;;;21.38;;
76447;SDS011;65284;51.040;13.722;2024-03-07T02:57:25;59.13;;;21.02;;
76447;SDS011;65284;51.040;13.722;2024-03-07T02:59:52;59.40;;;21.33;;
76447;SDS011;65284;51.040;13.722;2024-03-07T03:02:18;63.17;;;20.95;;
76447;SDS011;65284;51.040;13.722;2024-03-07T03:04:45;55.88;;;20.92;;
76447;SDS011;65284;51.040;13.722;2024-03-07T03:07:12;58.50;;;20.23;;
76447;SDS011;65284;51.040;13.722;2024-03-07T03:09:38;59.92;;;21.90;;
76447;SDS011;65284;51.040;13.722;2024-03-07T03:12:09;58.80;;;21.13;;
76447;SDS011;65284;51.040;13.722;2024-03-07T03:14:37;61.83;;;21.45;;
76447;SDS011;65284;51.040;13.722;2024-03-07T03:17:04;58.70;;;21.33;;
76447;SDS011;65284;51.040;13.722;2024-03-07T03:19:30;57.70;;;21.05;;
76447;SDS011;65284;51.040;13.722;2024-03-07T03:21:57;57.72;;;21.05;;
76447;SDS011;65284;51.040;13.722;2024-03-07T03:24:23;58.03;;;21.70;;
76447;SDS011;65284;51.040;13.722;2024-03-07T03:26:50;59.08;;;20.65;;
76447;SDS011;65284;51.040;13.722;2024-03-07T03:29:16;56.92;;;20.98;;
76447;SDS011;65284;51.040;13.722;2024-03-07T03:31:44;61.20;;;21.52;;
76447;SDS011;65284;51.040;13.722;2024-03-07T03:34:11;56.70;;;21.27;;
76447;SDS011;65284;51.040;13.722;2024-03-07T03:36:37;59.65;;;20.85;;
76447;SDS011;65284;51.040;13.722;2024-03-07T03:39:04;59.08;;;21.75;;
76447;SDS011;65284;51.040;13.722;2024-03-07T03:41:33;62.47;;;21.25;;
76447;SDS011;65284;51.040;13.722;2024-03-07T03:43:59;60.03;;;21.38;;
76447;SDS011;65284;51.040;13.722;2024-03-07T03:46:26;61.72;;;21.95;;
76447;SDS011;65284;51.040;13.722;2024-03-07T03:48:52;59.25;;;21.17;;
76447;SDS011;65284;51.040;13.722;2024-03-07T03:51:18;55.47;;;20.83;;
76447;SDS011;65284;51.040;13.722;2024-03-07T03:53:47;60.08;;;21.23;;
76447;SDS011;65284;51.040;13.722;2024-03-07T03:56:14;57.05;;;20.75;;
76447;SDS011;65284;51.040;13.722;2024-03-07T03:58:42;57.42;;;21.85;;
76447;SDS011;65284;51.040;13.722;2024-03-07T04:01:09;59.38;;;20.17;;
76447;SDS011;65284;51.040;13.722;2024-03-07T04:03:39;52.33;;;20.27;;
76447;SDS011;65284;51.040;13.722;2024-03-07T04:06:06;51.65;;;19.42;;
76447;SDS011;65284;51.040;13.722;2024-03-07T04:08:33;54.00;;;20.05;;
76447;SDS011;65284;51.040;13.722;2024-03-07T04:11:01;51.20;;;20.05;;
76447;SDS011;65284;51.040;13.722;2024-03-07T04:13:27;49.20;;;19.73;;
76447;SDS011;65284;51.040;13.722;2024-03-07T04:15:54;51.75;;;21.05;;
76447;SDS011;65284;51.040;13.722;2024-03-07T04:18:21;52.63;;;21.30;;
76447;SDS011;65284;51.040;13.722;2024-03-07T04:20:47;53.00;;;21.02;;
76447;SDS011;65284;51.040;13.722;2024-03-07T04:23:14;52.67;;;20.95;;
76447;SDS011;65284;51.040;13.722;2024-03-07T04:25:41;50.15;;;21.52;;
76447;SDS011;65284;51.040;13.722;2024-03-07T04:28:08;49.00;;;19.60;;
76447;SDS011;65284;51.040;13.722;2024-03-07T04:30:34;54.40;;;21.23;;
76447;SDS011;65284;51.040;13.722;2024-03-07T04:33:01;53.50;;;21.52;;
76447;SDS011;65284;51.040;13.722;2024-03-07T04:35:27;56.47;;;20.83;;
76447;SDS011;65284;51.040;13.722;2024-03-07T04:37:54;53.33;;;21.35;;
76447;SDS011;65284;51.040;13.722;2024-03-07T04:40:20;53.53;;;21.42;;
76447;SDS011;65284;51.040;13.722;2024-03-07T04:42:48;50.15;;;21.10;;
76447;SDS011;65284;51.040;13.722;2024-03-07T04:45:16;53.90;;;22.42;;
76447;SDS011;65284;51.040;13.722;2024-03-07T04:47:43;56.03;;;21.67;;
76447;SDS011;65284;51.040;13.722;2024-03-07T04:50:15;50.22;;;20.83;;
76447;SDS011;65284;51.040;13.722;2024-03-07T04:52:46;53.63;;;21.67;;
76447;SDS011;65284;51.040;13.722;2024-03-07T04:55:15;53.70;;;21.40;;
76447;SDS011;65284;51.040;13.722;2024-03-07T04:57:42;57.13;;;21.92;;
76447;SDS011;65284;51.040;13.722;2024-03-07T05:00:09;51.17;;;21.00;;
76447;SDS011;65284;51.040;13.722;2024-03-07T05:02:44;51.65;;;21.35;;
76447;SDS011;65284;51.040;13.722;2024-03-07T05:05:11;51.28;;;21.02;;
76447;SDS011;65284;51.040;13.722;2024-03-07T05:07:39;47.97;;;20.60;;
76447;SDS011;65284;51.040;13.722;2024-03-07T05:10:07;50.58;;;21.17;;
76447;SDS011;65284;51.040;13.722;2024-03-07T05:12:34;51.00;;;20.52;;
76447;SDS011;65284;51.040;13.722;2024-03-07T05:15:01;51.55;;;20.63;;
76447;SDS011;65284;51.040;13.722;2024-03-07T05:17:30;48.85;;;20.42;;
76447;SDS011;65284;51.040;13.722;2024-03-07T05:20:00;54.67;;;21.95;;
76447;SDS011;65284;51.040;13.722;2024-03-07T05:22:27;54.65;;;21.55;;
76447;SDS011;65284;51.040;13.722;2024-03-07T05:24:56;45.40;;;19.40;;
76447;SDS011;65284;51.040;13.722;2024-03-07T05:27:24;44.35;;;19.50;;
76447;SDS011;65284;51.040;13.722;2024-03-07T05:29:51;42.00;;;18.48;;
76447;SDS011;65284;51.040;13.722;2024-03-07T05:32:22;45.22;;;19.05;;
76447;SDS011;65284;51.040;13.722;2024-03-07T05:34:53;43.03;;;18.55;;
76447;SDS011;65284;51.040;13.722;2024-03-07T05:37:19;43.83;;;19.02;;
76447;SDS011;65284;51.040;13.722;2024-03-07T05:39:48;44.28;;;19.38;;
76447;SDS011;65284;51.040;13.722;2024-03-07T05:42:14;44.25;;;19.02;;
76447;SDS011;65284;51.040;13.722;2024-03-07T05:44:41;43.33;;;19.27;;
76447;SDS011;65284;51.040;13.722;2024-03-07T05:47:08;47.65;;;18.73;;
76447;SDS011;65284;51.040;13.722;2024-03-07T05:49:35;45.08;;;19.73;;
76447;SDS011;65284;51.040;13.722;2024-03-07T05:52:03;46.95;;;20.27;;
76447;SDS011;65284;51.040;13.722;2024-03-07T05:54:32;42.40;;;18.38;;
76447;SDS011;65284;51.040;13.722;2024-03-07T05:56:59;49.75;;;19.67;;
76447;SDS011;65284;51.040;13.722;2024-03-07T05:59:26;45.47;;;19.65;;
76447;SDS011;65284;51.040;13.722;2024-03-07T06:01:58;44.08;;;19.98;;
76447;SDS011;65284;51.040;13.722;2024-03-07T06:04:24;45.08;;;19.73;;
76447;SDS011;65284;51.040;13.722;2024-03-07T06:06:51;47.25;;;20.17;;
76447;SDS011;65284;51.040;13.722;2024-03-07T06:09:17;45.22;;;19.27;;
76447;SDS011;65284;51.040;13.722;2024-03-07T06:11:47;50.53;;;20.83;;
76447;SDS011;65284;51.040;13.722;2024-03-07T06:14:15;48.15;;;20.35;;
76447;SDS011;65284;51.040;13.722;2024-03-07T06:16:42;48.15;;;20.30;;
76447;SDS011;65284;51.040;13.722;2024-03-07T06:19:09;48.92;;;20.38;;
76447;SDS011;65284;51.040;13.722;2024-03-07T06:21:37;47.33;;;19.95;;
76447;SDS011;65284;51.040;13.722;2024-03-07T06:24:06;48.30;;;21.13;;
76447;SDS011;65284;51.040;13.722;2024-03-07T06:26:34;50.22;;;20.83;;
76447;SDS011;65284;51.040;13.722;2024-03-07T06:29:08;46.72;;;18.77;;
76447;SDS011;65284;51.040;13.722;2024-03-07T06:31:37;42.70;;;18.02;;
76447;SDS011;65284;51.040;13.722;2024-03-07T06:34:04;41.70;;;17.98;;
76447;SDS011;65284;51.040;13.722;2024-03-07T06:36:30;39.38;;;17.42;;
76447;SDS011;65284;51.040;13.722;2024-03-07T06:38:57;39.10;;;17.70;;
76447;SDS011;65284;51.040;13.722;2024-03-07T06:41:23;39.60;;;17.63;;
76447;SDS011;65284;51.040;13.722;2024-03-07T06:43:51;42.15;;;18.55;;
76447;SDS011;65284;51.040;13.722;2024-03-07T06:46:19;40.47;;;18.13;;
76447;SDS011;65284;51.040;13.722;2024-03-07T06:48:46;40.90;;;18.02;;
76447;SDS011;65284;51.040;13.722;2024-03-07T06:51:13;47.85;;;19.65;;
76447;SDS011;65284;51.040;13.722;2024-03-07T06:53:39;44.17;;;19.25;;
76447;SDS011;65284;51.040;13.722;2024-03-07T06:56:06;48.70;;;19.77;;
76447;SDS011;65284;51.040;13.722;2024-03-07T06:58:32;40.97;;;18.38;;
76447;SDS011;65284;51.040;13.722;2024-03-07T07:00:59;42.70;;;18.27;;
76447;SDS011;65284;51.040;13.722;2024-03-07T07:03:27;44.10;;;19.15;;
76447;SDS011;65284;51.040;13.722;2024-03-07T07:05:58;45.25;;;19.23;;
76447;SDS011;65284;51.040;13.722;2024-03-07T07:08:25;44.15;;;18.95;;
76447;SDS011;65284;51.040;13.722;2024-03-07T07:10:52;41.92;;;19.00;;
76447;SDS011;65284;51.040;13.722;2024-03-07T07:13:20;40.42;;;18.05;;
76447;SDS011;65284;51.040;13.722;2024-03-07T07:15:48;40.72;;;17.48;;
76447;SDS011;65284;51.040;13.722;2024-03-07T07:18:15;38.97;;;17.85;;
76447;SDS011;65284;51.040;13.722;2024-03-07T07:20:42;42.17;;;17.90;;
76447;SDS011;65284;51.040;13.722;2024-03-07T07:23:09;39.58;;;17.55;;
76447;SDS011;65284;51.040;13.722;2024-03-07T07:25:36;38.25;;;16.73;;
76447;SDS011;65284;51.040;13.722;2024-03-07T07:28:03;36.63;;;16.67;;
76447;SDS011;65284;51.040;13.722;2024-03-07T07:30:34;41.03;;;17.23;;
76447;SDS011;65284;51.040;13.722;2024-03-07T07:33:00;40.50;;;16.67;;
76447;SDS011;65284;51.040;13.722;2024-03-07T07:35:27;32.58;;;15.32;;
76447;SDS011;65284;51.040;13.722;2024-03-07T07:37:54;33.10;;;14.45;;
76447;SDS011;65284;51.040;13.722;2024-03-07T07:40:23;34.42;;;15.40;;
76447;SDS011;65284;51.040;13.722;2024-03-07T07:42:51;35.10;;;15.02;;
76447;SDS011;65284;51.040;13.722;2024-03-07T07:45:20;32.67;;;14.13;;
76447;SDS011;65284;51.040;13.722;2024-03-07T07:47:48;33.78;;;14.80;;
76447;SDS011;65284;51.040;13.722;2024-03-07T07:50:16;32.25;;;13.73;;
76447;SDS011;65284;51.040;13.722;2024-03-07T07:55:12;32.25;;;13.77;;
76447;SDS011;65284;51.040;13.722;2024-03-07T07:57:42;29.10;;;12.52;;
76447;SDS011;65284;51.040;13.722;2024-03-07T08:00:14;28.38;;;12.48;;
76447;SDS011;65284;51.040;13.722;2024-03-07T08:02:48;29.10;;;13.15;;
76447;SDS011;65284;51.040;13.722;2024-03-07T08:05:20;34.28;;;13.93;;
76447;SDS011;65284;51.040;13.722;2024-03-07T08:07:49;36.15;;;16.33;;
76447;SDS011;65284;51.040;13.722;2024-03-07T08:10:23;33.97;;;15.60;;
76447;SDS011;65284;51.040;13.722;2024-03-07T08:12:52;33.63;;;14.30;;
76447;SDS011;65284;51.040;13.722;2024-03-07T08:15:18;27.42;;;12.10;;
76447;SDS011;65284;51.040;13.722;2024-03-07T08:17:46;26.88;;;12.13;;
76447;SDS011;65284;51.040;13.722;2024-03-07T08:20:17;25.92;;;11.40;;
76447;SDS011;65284;51.040;13.722;2024-03-07T08:22:45;26.00;;;11.52;;
76447;SDS011;65284;51.040;13.722;2024-03-07T08:25:12;27.45;;;11.75;;
76447;SDS011;65284;51.040;13.722;2024-03-07T08:27:40;27.20;;;12.07;;
76447;SDS011;65284;51.040;13.722;2024-03-07T08:30:08;27.23;;;12.20;;
76447;SDS011;65284;51.040;13.722;2024-03-07T08:35:08;25.58;;;11.93;;
76447;SDS011;65284;51.040;13.722;2024-03-07T08:37:35;23.00;;;10.18;;
76447;SDS011;65284;51.040;13.722;2024-03-07T08:40:02;22.20;;;11.15;;
76447;SDS011;65284;51.040;13.722;2024-03-07T08:42:33;24.15;;;10.82;;
76447;SDS011;65284;51.040;13.722;2024-03-07T08:45:00;24.25;;;10.45;;
76447;SDS011;65284;51.040;13.722;2024-03-07T08:47:31;23.38;;;10.40;;
76447;SDS011;65284;51.040;13.722;2024-03-07T08:49:58;25.58;;;11.05;;
76447;SDS011;65284;51.040;13.722;2024-03-07T08:52:26;22.35;;;10.45;;
76447;SDS011;65284;51.040;13.722;2024-03-07T08:54:53;24.27;;;11.10;;
76447;SDS011;65284;51.040;13.722;2024-03-07T08:57:20;21.33;;;10.00;;
76447;SDS011;65284;51.040;13.722;2024-03-07T08:59:48;21.60;;;9.85;;
76447;SDS011;65284;51.040;13.722;2024-03-07T09:02:15;21.58;;;9.68;;
76447;SDS011;65284;51.040;13.722;2024-03-07T09:04:42;24.13;;;10.48;;
76447;SDS011;65284;51.040;13.722;2024-03-07T09:07:08;21.40;;;10.13;;
76447;SDS011;65284;51.040;13.722;2024-03-07T09:09:34;21.42;;;10.15;;
76447;SDS011;65284;51.040;13.722;2024-03-07T09:12:01;21.85;;;9.65;;
76447;SDS011;65284;51.040;13.722;2024-03-07T09:14:28;23.38;;;10.50;;
76447;SDS011;65284;51.040;13.722;2024-03-07T09:16:55;32.75;;;14.70;;
76447;SDS011;65284;51.040;13.722;2024-03-07T09:19:23;22.35;;;9.57;;
76447;SDS011;65284;51.040;13.722;2024-03-07T09:21:53;19.23;;;8.55;;
76447;SDS011;65284;51.040;13.722;2024-03-07T09:24:20;17.27;;;8.30;;
76447;SDS011;65284;51.040;13.722;2024-03-07T09:26:50;18.60;;;8.63;;
76447;SDS011;65284;51.040;13.722;2024-03-07T09:29:19;18.70;;;8.18;;
76447;SDS011;65284;51.040;13.722;2024-03-07T09:31:46;19.08;;;8.48;;
76447;SDS011;65284;51.040;13.722;2024-03-07T09:34:13;16.77;;;8.00;;
76447;SDS011;65284;51.040;13.722;2024-03-07T09:36:41;19.20;;;8.45;;
76447;SDS011;65284;51.040;13.722;2024-03-07T09:39:08;16.85;;;8.15;;
76447;SDS011;65284;51.040;13.722;2024-03-07T09:41:35;20.98;;;9.35;;
76447;SDS011;65284;51.040;13.722;2024-03-07T09:44:02;18.45;;;8.88;;
76447;SDS011;65284;51.040;13.722;2024-03-07T09:46:30;17.27;;;9.02;;
76447;SDS011;65284;51.040;13.722;2024-03-07T09:48:57;17.85;;;9.00;;
76447;SDS011;65284;51.040;13.722;2024-03-07T09:51:24;20.40;;;9.45;;
76447;SDS011;65284;51.040;13.722;2024-03-07T09:53:53;22.63;;;9.32;;
76447;SDS011;65284;51.040;13.722;2024-03-07T09:56:22;20.13;;;9.80;;
76447;SDS011;65284;51.040;13.722;2024-03-07T09:58:49;19.27;;;9.50;;
76447;SDS011;65284;51.040;13.722;2024-03-07T10:01:19;20.27;;;9.65;;
76447;SDS011;65284;51.040;13.722;2024-03-07T10:03:47;20.23;;;9.82;;
76447;SDS011;65284;51.040;13.722;2024-03-07T10:06:16;20.75;;;10.10;;
76447;SDS011;65284;51.040;13.722;2024-03-07T10:08:43;21.30;;;10.48;;
76447;SDS011;65284;51.040;13.722;2024-03-07T10:11:09;22.20;;;11.38;;
76447;SDS011;65284;51.040;13.722;2024-03-07T10:13:36;21.80;;;10.20;;
76447;SDS011;65284;51.040;13.722;2024-03-07T10:16:03;21.23;;;10.70;;
76447;SDS011;65284;51.040;13.722;2024-03-07T10:18:31;21.60;;;10.98;;
76447;SDS011;65284;51.040;13.722;2024-03-07T10:20:58;19.10;;;10.20;;
76447;SDS011;65284;51.040;13.722;2024-03-07T10:23:26;20.05;;;10.23;;
76447;SDS011;65284;51.040;13.722;2024-03-07T10:25:53;20.88;;;10.00;;
76447;SDS011;65284;51.040;13.722;2024-03-07T10:28:23;25.52;;;11.35;;
76447;SDS011;65284;51.040;13.722;2024-03-07T10:30:50;23.50;;;11.75;;
76447;SDS011;65284;51.040;13.722;2024-03-07T10:33:17;23.75;;;11.73;;
76447;SDS011;65284;51.040;13.722;2024-03-07T10:35:47;25.92;;;12.05;;
76447;SDS011;65284;51.040;13.722;2024-03-07T10:38:17;22.67;;;11.30;;
76447;SDS011;65284;51.040;13.722;2024-03-07T10:40:47;23.13;;;11.55;;
76447;SDS011;65284;51.040;13.722;2024-03-07T10:43:15;24.63;;;12.32;;
76447;SDS011;65284;51.040;13.722;2024-03-07T10:45:45;24.33;;;11.98;;
76447;SDS011;65284;51.040;13.722;2024-03-07T10:48:13;26.42;;;12.43;;
76447;SDS011;65284;51.040;13.722;2024-03-07T10:50:52;25.67;;;12.82;;
76447;SDS011;65284;51.040;13.722;2024-03-07T10:56:42;27.90;;;12.32;;
76447;SDS011;65284;51.040;13.722;2024-03-07T10:59:20;28.40;;;13.27;;
76447;SDS011;65284;51.040;13.722;2024-03-07T11:01:59;26.98;;;13.35;;
76447;SDS011;65284;51.040;13.722;2024-03-07T11:04:48;26.88;;;13.13;;
76447;SDS011;65284;51.040;13.722;2024-03-07T11:07:15;26.65;;;12.90;;
76447;SDS011;65284;51.040;13.722;2024-03-07T11:09:42;24.75;;;12.70;;
76447;SDS011;65284;51.040;13.722;2024-03-07T11:12:12;24.83;;;12.15;;
76447;SDS011;65284;51.040;13.722;2024-03-07T11:14:40;28.33;;;13.40;;
76447;SDS011;65284;51.040;13.722;2024-03-07T11:17:08;26.27;;;13.27;;
76447;SDS011;65284;51.040;13.722;2024-03-07T11:19:36;25.85;;;12.88;;
76447;SDS011;65284;51.040;13.722;2024-03-07T11:22:03;26.30;;;12.68;;
76447;SDS011;65284;51.040;13.722;2024-03-07T11:24:42;27.95;;;12.77;;
76447;SDS011;65284;51.040;13.722;2024-03-07T11:27:09;25.33;;;12.88;;
76447;SDS011;65284;51.040;13.722;2024-03-07T11:29:47;25.40;;;12.68;;
76447;SDS011;65284;51.040;13.722;2024-03-07T11:32:20;26.60;;;13.73;;
76447;SDS011;65284;51.040;13.722;2024-03-07T11:34:50;25.20;;;12.85;;
76447;SDS011;65284;51.040;13.722;2024-03-07T11:37:20;28.52;;;13.57;;
76447;SDS011;65284;51.040;13.722;2024-03-07T11:40:07;26.02;;;12.05;;
76447;SDS011;65284;51.040;13.722;2024-03-07T11:42:34;25.85;;;12.13;;
76447;SDS011;65284;51.040;13.722;2024-03-07T11:45:02;24.40;;;11.60;;
76447;SDS011;65284;51.040;13.722;2024-03-07T11:47:36;26.83;;;12.52;;
76447;SDS011;65284;51.040;13.722;2024-03-07T11:50:07;24.40;;;11.43;;
76447;SDS011;65284;51.040;13.722;2024-03-07T11:52:38;26.67;;;12.10;;
76447;SDS011;65284;51.040;13.722;2024-03-07T11:55:08;24.08;;;11.90;;
76447;SDS011;65284;51.040;13.722;2024-03-07T11:57:35;25.98;;;12.25;;
76447;SDS011;65284;51.040;13.722;2024-03-07T12:00:02;24.08;;;12.43;;
76447;SDS011;65284;51.040;13.722;2024-03-07T12:02:39;24.65;;;11.65;;
76447;SDS011;65284;51.040;13.722;2024-03-07T12:05:06;28.70;;;12.57;;
76447;SDS011;65284;51.040;13.722;2024-03-07T12:07:34;23.52;;;11.63;;
76447;SDS011;65284;51.040;13.722;2024-03-07T12:10:01;27.40;;;12.63;;
76447;SDS011;65284;51.040;13.722;2024-03-07T12:12:33;26.50;;;12.50;;
76447;SDS011;65284;51.040;13.722;2024-03-07T12:15:00;25.83;;;12.57;;
76447;SDS011;65284;51.040;13.722;2024-03-07T12:17:29;26.33;;;12.27;;
76447;SDS011;65284;51.040;13.722;2024-03-07T12:19:58;27.60;;;12.85;;
76447;SDS011;65284;51.040;13.722;2024-03-07T12:22:29;27.20;;;12.52;;
76447;SDS011;65284;51.040;13.722;2024-03-07T12:25:00;27.60;;;12.38;;
76447;SDS011;65284;51.040;13.722;2024-03-07T12:27:34;25.40;;;12.20;;
76447;SDS011;65284;51.040;13.722;2024-03-07T12:30:01;25.92;;;12.07;;
76447;SDS011;65284;51.040;13.722;2024-03-07T12:32:34;29.23;;;12.25;;
76447;SDS011;65284;51.040;13.722;2024-03-07T12:35:04;26.70;;;12.73;;
76447;SDS011;65284;51.040;13.722;2024-03-07T12:37:34;26.83;;;12.27;;
76447;SDS011;65284;51.040;13.722;2024-03-07T12:40:10;24.75;;;11.98;;
76447;SDS011;65284;51.040;13.722;2024-03-07T12:42:37;25.42;;;12.13;;
76447;SDS011;65284;51.040;13.722;2024-03-07T12:45:05;26.33;;;12.38;;
76447;SDS011;65284;51.040;13.722;2024-03-07T12:47:31;23.45;;;12.52;;
76447;SDS011;65284;51.040;13.722;2024-03-07T12:49:58;28.20;;;12.23;;
76447;SDS011;65284;51.040;13.722;2024-03-07T12:52:25;26.48;;;11.77;;
76447;SDS011;65284;51.040;13.722;2024-03-07T12:54:51;22.45;;;11.35;;
76447;SDS011;65284;51.040;13.722;2024-03-07T12:57:19;22.83;;;11.32;;
76447;SDS011;65284;51.040;13.722;2024-03-07T12:59:45;21.67;;;10.98;;
76447;SDS011;65284;51.040;13.722;2024-03-07T13:02:11;22.50;;;11.07;;
76447;SDS011;65284;51.040;13.722;2024-03-07T13:04:38;22.85;;;11.00;;
76447;SDS011;65284;51.040;13.722;2024-03-07T13:07:09;23.88;;;11.65;;
76447;SDS011;65284;51.040;13.722;2024-03-07T13:09:36;21.23;;;10.90;;
76447;SDS011;65284;51.040;13.722;2024-03-07T13:12:04;29.33;;;13.80;;
76447;SDS011;65284;51.040;13.722;2024-03-07T13:14:37;21.35;;;10.63;;
76447;SDS011;65284;51.040;13.722;2024-03-07T13:17:04;24.85;;;12.90;;
76447;SDS011;65284;51.040;13.722;2024-03-07T13:19:32;21.13;;;11.55;;
76447;SDS011;65284;51.040;13.722;2024-03-07T13:21:59;24.48;;;10.85;;
76447;SDS011;65284;51.040;13.722;2024-03-07T13:24:27;22.65;;;10.82;;
76447;SDS011;65284;51.040;13.722;2024-03-07T13:26:53;23.55;;;10.43;;
76447;SDS011;65284;51.040;13.722;2024-03-07T13:29:20;20.85;;;10.48;;
76447;SDS011;65284;51.040;13.722;2024-03-07T13:31:51;23.27;;;11.15;;
76447;SDS011;65284;51.040;13.722;2024-03-07T13:34:21;21.23;;;10.27;;
76447;SDS011;65284;51.040;13.722;2024-03-07T13:36:47;20.83;;;10.40;;
76447;SDS011;65284;51.040;13.722;2024-03-07T13:39:14;20.50;;;9.77;;
76447;SDS011;65284;51.040;13.722;2024-03-07T13:41:42;21.02;;;10.35;;
76447;SDS011;65284;51.040;13.722;2024-03-07T13:44:09;21.85;;;10.38;;
76447;SDS011;65284;51.040;13.722;2024-03-07T13:46:36;23.23;;;10.57;;
76447;SDS011;65284;51.040;13.722;2024-03-07T13:49:03;22.23;;;10.45;;
76447;SDS011;65284;51.040;13.722;2024-03-07T13:51:39;22.33;;;10.93;;
76447;SDS011;65284;51.040;13.722;2024-03-07T13:54:19;21.35;;;10.13;;
76447;SDS011;65284;51.040;13.722;2024-03-07T14:11:01;21.60;;;10.40;;
76447;SDS011;65284;51.040;13.722;2024-03-07T14:19:45;18.92;;;9.48;;
76447;SDS011;65284;51.040;13.722;2024-03-07T14:31:40;27.58;;;12.15;;
76447;SDS011;65284;51.040;13.722;2024-03-07T14:39:12;21.33;;;10.82;;
76447;SDS011;65284;51.040;13.722;2024-03-07T14:41:50;21.23;;;10.40;;
76447;SDS011;65284;51.040;13.722;2024-03-07T14:44:24;21.40;;;10.10;;
76447;SDS011;65284;51.040;13.722;2024-03-07T14:46:57;20.13;;;10.30;;
76447;SDS011;65284;51.040;13.722;2024-03-07T14:49:26;22.30;;;10.30;;
76447;SDS011;65284;51.040;13.722;2024-03-07T14:51:54;21.25;;;10.55;;
76447;SDS011;65284;51.040;13.722;2024-03-07T14:54:26;21.42;;;10.82;;
76447;SDS011;65284;51.040;13.722;2024-03-07T14:56:53;23.95;;;10.63;;